sensor_id;sensor_type;location;lat;lon;timestamp;temperature;humidity
4548;DHT22;2286;51.570;7.090;2024-01-15T00:00:03;1.10;99.90
4548;DHT22;2286;51.570;7.090;2024-01-15T00:02:30;1.10;99.90
4548;DHT22;2286;51.570;7.090;2024-01-15T00:04:57;1.10;99.90
4548;DHT22;2286;51.570;7.090;2024-01-15T00:07:24;1.10;99.90
4548;DHT22;2286;51.570;7.090;2024-01-15T00:09:51;1.10;99.90
4548;DHT22;2286;51.570;7.090;2024-01-15T00:12:18;1.10;99.90
4548;DHT22;2286;51.570;7.090;2024-01-15T00:14:45;1.10;99.90
4548;DHT22;2286;51.570;7.090;2024-01-15T00:17:14;1.10;99.90
4548;DHT22;2286;51.570;7.090;2024-01-15T00:19:41;1.10;99.90
4548;DHT22;2286;51.570;7.090;2024-01-15T00:22:08;1.10;99.90
4548;DHT22;2286;51.570;7.090;2024-01-15T00:24:35;1.10;99.90
4548;DHT22;2286;51.570;7.090;2024-01-15T00:27:01;1.20;99.90
4548;DHT22;2286;51.570;7.090;2024-01-15T00:29:28;1.10;99.90
4548;DHT22;2286;51.570;7.090;2024-01-15T00:31:55;1.20;99.90
4548;DHT22;2286;51.570;7.090;2024-01-15T00:34:23;1.20;99.90
4548;DHT22;2286;51.570;7.090;2024-01-15T00:36:50;1.20;99.90
4548;DHT22;2286;51.570;7.090;2024-01-15T00:39:17;1.10;99.90
4548;DHT22;2286;51.570;7.090;2024-01-15T00:41:44;1.20;99.90
4548;DHT22;2286;51.570;7.090;2024-01-15T00:44:11;1.20;99.90
4548;DHT22;2286;51.570;7.090;2024-01-15T00:46:43;1.20;99.90
4548;DHT22;2286;51.570;7.090;2024-01-15T00:49:11;1.20;99.90
4548;DHT22;2286;51.570;7.090;2024-01-15T00:51:40;1.20;99.90
4548;DHT22;2286;51.570;7.090;2024-01-15T00:54:07;1.20;99.90
4548;DHT22;2286;51.570;7.090;2024-01-15T00:56:34;1.20;99.90
4548;DHT22;2286;51.570;7.090;2024-01-15T00:59:01;1.20;99.90
4548;DHT22;2286;51.570;7.090;2024-01-15T01:01:28;1.20;99.90
4548;DHT22;2286;51.570;7.090;2024-01-15T01:03:55;1.20;99.90
4548;DHT22;2286;51.570;7.090;2024-01-15T01:06:22;1.20;99.90
4548;DHT22;2286;51.570;7.090;2024-01-15T01:08:50;1.20;99.90
4548;DHT22;2286;51.570;7.090;2024-01-15T01:11:17;1.20;99.90
4548;DHT22;2286;51.570;7.090;2024-01-15T01:13:44;1.20;99.90
4548;DHT22;2286;51.570;7.090;2024-01-15T01:16:11;1.10;99.90
4548;DHT22;2286;51.570;7.090;2024-01-15T01:18:39;1.10;99.90
4548;DHT22;2286;51.570;7.090;2024-01-15T01:21:05;1.20;99.90
4548;DHT22;2286;51.570;7.090;2024-01-15T01:23:33;1.20;99.90
4548;DHT22;2286;51.570;7.090;2024-01-15T01:26:01;1.20;57.70
4548;DHT22;2286;51.570;7.090;2024-01-15T01:28:28;1.10;5.40
4548;DHT22;2286;51.570;7.090;2024-01-15T01:30:55;1.10;1.00
4548;DHT22;2286;51.570;7.090;2024-01-15T01:33:22;1.10;1.00
4548;DHT22;2286;51.570;7.090;2024-01-15T01:35:49;1.10;1.00
4548;DHT22;2286;51.570;7.090;2024-01-15T01:38:16;1.20;1.00
4548;DHT22;2286;51.570;7.090;2024-01-15T01:40:43;1.20;1.00
4548;DHT22;2286;51.570;7.090;2024-01-15T01:43:12;1.10;1.00
4548;DHT22;2286;51.570;7.090;2024-01-15T01:45:38;1.20;1.00
4548;DHT22;2286;51.570;7.090;2024-01-15T01:48:06;1.20;1.00
4548;DHT22;2286;51.570;7.090;2024-01-15T01:50:34;1.20;1.00
4548;DHT22;2286;51.570;7.090;2024-01-15T01:53:01;1.20;99.90
4548;DHT22;2286;51.570;7.090;2024-01-15T01:55:31;1.20;99.90
4548;DHT22;2286;51.570;7.090;2024-01-15T01:57:59;1.10;99.90
4548;DHT22;2286;51.570;7.090;2024-01-15T02:00:28;1.20;99.90
4548;DHT22;2286;51.570;7.090;2024-01-15T02:02:56;1.20;33.20
4548;DHT22;2286;51.570;7.090;2024-01-15T02:05:23;1.20;20.30
4548;DHT22;2286;51.570;7.090;2024-01-15T02:07:50;1.20;1.00
4548;DHT22;2286;51.570;7.090;2024-01-15T02:10:17;1.20;1.00
4548;DHT22;2286;51.570;7.090;2024-01-15T02:12:44;1.20;1.00
4548;DHT22;2286;51.570;7.090;2024-01-15T02:15:14;1.20;1.00
4548;DHT22;2286;51.570;7.090;2024-01-15T02:17:59;1.20;99.90
4548;DHT22;2286;51.570;7.090;2024-01-15T02:20:26;1.20;99.90
4548;DHT22;2286;51.570;7.090;2024-01-15T02:22:54;1.20;1.00
4548;DHT22;2286;51.570;7.090;2024-01-15T02:25:22;1.20;1.00
4548;DHT22;2286;51.570;7.090;2024-01-15T02:27:49;1.20;1.00
4548;DHT22;2286;51.570;7.090;2024-01-15T02:30:17;1.20;1.00
4548;DHT22;2286;51.570;7.090;2024-01-15T02:32:45;1.20;1.00
4548;DHT22;2286;51.570;7.090;2024-01-15T02:35:12;1.20;1.00
4548;DHT22;2286;51.570;7.090;2024-01-15T02:37:39;1.20;99.90
4548;DHT22;2286;51.570;7.090;2024-01-15T02:40:07;1.10;99.90
4548;DHT22;2286;51.570;7.090;2024-01-15T02:42:36;1.10;99.90
4548;DHT22;2286;51.570;7.090;2024-01-15T02:45:03;1.10;99.90
4548;DHT22;2286;51.570;7.090;2024-01-15T02:47:30;1.10;99.90
4548;DHT22;2286;51.570;7.090;2024-01-15T02:49:57;1.10;99.90
4548;DHT22;2286;51.570;7.090;2024-01-15T02:52:24;1.10;1.00
4548;DHT22;2286;51.570;7.090;2024-01-15T02:54:51;1.10;1.00
4548;DHT22;2286;51.570;7.090;2024-01-15T02:57:18;1.10;99.90
4548;DHT22;2286;51.570;7.090;2024-01-15T02:59:47;1.10;99.90
4548;DHT22;2286;51.570;7.090;2024-01-15T03:02:14;1.10;99.90
4548;DHT22;2286;51.570;7.090;2024-01-15T03:04:43;1.10;99.90
4548;DHT22;2286;51.570;7.090;2024-01-15T03:07:10;1.10;99.90
4548;DHT22;2286;51.570;7.090;2024-01-15T03:09:37;1.10;99.90
4548;DHT22;2286;51.570;7.090;2024-01-15T03:12:05;1.20;99.90
4548;DHT22;2286;51.570;7.090;2024-01-15T03:14:32;1.20;99.90
4548;DHT22;2286;51.570;7.090;2024-01-15T03:17:00;1.20;99.90
4548;DHT22;2286;51.570;7.090;2024-01-15T03:19:27;1.20;99.90
4548;DHT22;2286;51.570;7.090;2024-01-15T03:21:56;1.10;99.90
4548;DHT22;2286;51.570;7.090;2024-01-15T03:24:23;1.10;99.90
4548;DHT22;2286;51.570;7.090;2024-01-15T03:26:50;1.20;99.90
4548;DHT22;2286;51.570;7.090;2024-01-15T03:29:17;1.20;99.90
4548;DHT22;2286;51.570;7.090;2024-01-15T03:31:43;1.20;99.90
4548;DHT22;2286;51.570;7.090;2024-01-15T03:34:12;1.30;99.90
4548;DHT22;2286;51.570;7.090;2024-01-15T03:36:39;1.20;99.90
4548;DHT22;2286;51.570;7.090;2024-01-15T03:39:06;1.20;72.90
4548;DHT22;2286;51.570;7.090;2024-01-15T03:41:33;1.30;1.00
4548;DHT22;2286;51.570;7.090;2024-01-15T03:44:00;1.30;1.00
4548;DHT22;2286;51.570;7.090;2024-01-15T03:46:27;1.30;1.00
4548;DHT22;2286;51.570;7.090;2024-01-15T03:48:54;1.30;99.90
4548;DHT22;2286;51.570;7.090;2024-01-15T03:51:23;1.30;99.90
4548;DHT22;2286;51.570;7.090;2024-01-15T03:53:50;1.40;99.90
4548;DHT22;2286;51.570;7.090;2024-01-15T03:56:17;1.40;99.90
4548;DHT22;2286;51.570;7.090;2024-01-15T03:58:44;1.40;40.30
4548;DHT22;2286;51.570;7.090;2024-01-15T04:01:11;1.40;1.00
4548;DHT22;2286;51.570;7.090;2024-01-15T04:03:38;1.40;1.00
4548;DHT22;2286;51.570;7.090;2024-01-15T04:06:06;1.30;1.00
4548;DHT22;2286;51.570;7.090;2024-01-15T04:08:34;1.30;1.00
4548;DHT22;2286;51.570;7.090;2024-01-15T04:11:01;1.30;1.00
4548;DHT22;2286;51.570;7.090;2024-01-15T04:13:28;1.30;1.00
4548;DHT22;2286;51.570;7.090;2024-01-15T04:15:55;1.30;1.00
4548;DHT22;2286;51.570;7.090;2024-01-15T04:18:22;1.40;1.00
4548;DHT22;2286;51.570;7.090;2024-01-15T04:20:49;1.30;1.00
4548;DHT22;2286;51.570;7.090;2024-01-15T04:23:16;1.30;1.00
4548;DHT22;2286;51.570;7.090;2024-01-15T04:25:44;1.40;99.90
4548;DHT22;2286;51.570;7.090;2024-01-15T04:28:12;1.40;99.90
4548;DHT22;2286;51.570;7.090;2024-01-15T04:30:39;1.40;76.00
4548;DHT22;2286;51.570;7.090;2024-01-15T04:33:06;1.40;77.40
4548;DHT22;2286;51.570;7.090;2024-01-15T04:35:33;1.40;99.90
4548;DHT22;2286;51.570;7.090;2024-01-15T04:38:00;1.40;99.90
4548;DHT22;2286;51.570;7.090;2024-01-15T04:40:27;1.40;99.90
4548;DHT22;2286;51.570;7.090;2024-01-15T04:42:56;1.50;99.90
4548;DHT22;2286;51.570;7.090;2024-01-15T04:45:23;1.40;99.90
4548;DHT22;2286;51.570;7.090;2024-01-15T04:47:54;1.50;99.90
4548;DHT22;2286;51.570;7.090;2024-01-15T04:50:21;1.50;99.90
4548;DHT22;2286;51.570;7.090;2024-01-15T04:52:49;1.50;17.70
4548;DHT22;2286;51.570;7.090;2024-01-15T04:55:16;1.50;1.00
4548;DHT22;2286;51.570;7.090;2024-01-15T04:57:43;1.50;38.90
4548;DHT22;2286;51.570;7.090;2024-01-15T05:00:12;1.50;99.90
4548;DHT22;2286;51.570;7.090;2024-01-15T05:02:40;1.50;99.90
4548;DHT22;2286;51.570;7.090;2024-01-15T05:05:07;1.50;99.90
4548;DHT22;2286;51.570;7.090;2024-01-15T05:07:34;1.50;99.90
4548;DHT22;2286;51.570;7.090;2024-01-15T05:10:01;1.50;99.90
4548;DHT22;2286;51.570;7.090;2024-01-15T05:12:29;1.50;99.90
4548;DHT22;2286;51.570;7.090;2024-01-15T05:14:56;1.50;99.90
4548;DHT22;2286;51.570;7.090;2024-01-15T05:17:24;1.50;99.90
4548;DHT22;2286;51.570;7.090;2024-01-15T05:19:52;1.40;99.90
4548;DHT22;2286;51.570;7.090;2024-01-15T05:22:19;1.40;1.00
4548;DHT22;2286;51.570;7.090;2024-01-15T05:24:46;1.50;1.00
4548;DHT22;2286;51.570;7.090;2024-01-15T05:27:14;1.50;1.00
4548;DHT22;2286;51.570;7.090;2024-01-15T05:29:41;1.40;1.00
4548;DHT22;2286;51.570;7.090;2024-01-15T05:32:08;1.40;1.00
4548;DHT22;2286;51.570;7.090;2024-01-15T05:34:36;1.40;1.00
4548;DHT22;2286;51.570;7.090;2024-01-15T05:37:03;1.40;1.00
4548;DHT22;2286;51.570;7.090;2024-01-15T05:39:31;1.50;1.00
4548;DHT22;2286;51.570;7.090;2024-01-15T05:41:58;1.50;1.00
4548;DHT22;2286;51.570;7.090;2024-01-15T05:44:26;1.40;1.00
4548;DHT22;2286;51.570;7.090;2024-01-15T05:46:53;1.40;1.00
4548;DHT22;2286;51.570;7.090;2024-01-15T05:49:20;1.50;1.00
4548;DHT22;2286;51.570;7.090;2024-01-15T05:51:49;1.50;1.00
4548;DHT22;2286;51.570;7.090;2024-01-15T05:54:18;1.50;99.90
4548;DHT22;2286;51.570;7.090;2024-01-15T05:56:45;1.50;99.90
4548;DHT22;2286;51.570;7.090;2024-01-15T05:59:12;1.50;99.90
4548;DHT22;2286;51.570;7.090;2024-01-15T06:01:39;1.50;99.90
4548;DHT22;2286;51.570;7.090;2024-01-15T06:04:06;1.50;99.90
4548;DHT22;2286;51.570;7.090;2024-01-15T06:06:33;1.50;98.00
4548;DHT22;2286;51.570;7.090;2024-01-15T06:09:02;1.50;94.80
4548;DHT22;2286;51.570;7.090;2024-01-15T06:11:31;1.50;99.90
4548;DHT22;2286;51.570;7.090;2024-01-15T06:13:58;1.50;99.90
4548;DHT22;2286;51.570;7.090;2024-01-15T06:16:26;1.50;99.90
4548;DHT22;2286;51.570;7.090;2024-01-15T06:18:53;1.50;99.90
4548;DHT22;2286;51.570;7.090;2024-01-15T06:21:20;1.50;99.90
4548;DHT22;2286;51.570;7.090;2024-01-15T06:23:47;1.50;99.90
4548;DHT22;2286;51.570;7.090;2024-01-15T06:26:16;1.50;99.90
4548;DHT22;2286;51.570;7.090;2024-01-15T06:28:43;1.50;95.10
4548;DHT22;2286;51.570;7.090;2024-01-15T06:31:10;1.50;99.90
4548;DHT22;2286;51.570;7.090;2024-01-15T06:33:37;1.50;99.90
4548;DHT22;2286;51.570;7.090;2024-01-15T06:36:04;1.50;99.90
4548;DHT22;2286;51.570;7.090;2024-01-15T06:38:32;1.50;99.90
4548;DHT22;2286;51.570;7.090;2024-01-15T06:40:59;1.50;99.90
4548;DHT22;2286;51.570;7.090;2024-01-15T06:43:28;1.50;99.90
4548;DHT22;2286;51.570;7.090;2024-01-15T06:45:55;1.50;99.80
4548;DHT22;2286;51.570;7.090;2024-01-15T06:48:22;1.50;37.60
4548;DHT22;2286;51.570;7.090;2024-01-15T06:50:49;1.50;4.00
4548;DHT22;2286;51.570;7.090;2024-01-15T06:53:16;1.50;93.60
4548;DHT22;2286;51.570;7.090;2024-01-15T06:55:43;1.50;1.00
4548;DHT22;2286;51.570;7.090;2024-01-15T06:58:10;1.60;1.00
4548;DHT22;2286;51.570;7.090;2024-01-15T07:00:38;1.60;1.00
4548;DHT22;2286;51.570;7.090;2024-01-15T07:03:06;1.50;1.00
4548;DHT22;2286;51.570;7.090;2024-01-15T07:05:33;1.60;1.00
4548;DHT22;2286;51.570;7.090;2024-01-15T07:08:02;1.60;1.00
4548;DHT22;2286;51.570;7.090;2024-01-15T07:10:29;1.50;1.00
4548;DHT22;2286;51.570;7.090;2024-01-15T07:12:56;1.50;1.00
4548;DHT22;2286;51.570;7.090;2024-01-15T07:15:23;1.50;1.00
4548;DHT22;2286;51.570;7.090;2024-01-15T07:17:52;1.60;1.00
4548;DHT22;2286;51.570;7.090;2024-01-15T07:20:19;1.60;1.00
4548;DHT22;2286;51.570;7.090;2024-01-15T07:22:46;1.60;1.00
4548;DHT22;2286;51.570;7.090;2024-01-15T07:25:13;1.60;1.00
4548;DHT22;2286;51.570;7.090;2024-01-15T07:27:41;1.60;99.90
4548;DHT22;2286;51.570;7.090;2024-01-15T07:30:11;1.60;99.90
4548;DHT22;2286;51.570;7.090;2024-01-15T07:32:38;1.60;99.90
4548;DHT22;2286;51.570;7.090;2024-01-15T07:35:07;1.60;99.90
4548;DHT22;2286;51.570;7.090;2024-01-15T07:37:35;1.60;99.90
4548;DHT22;2286;51.570;7.090;2024-01-15T07:40:02;1.60;99.90
4548;DHT22;2286;51.570;7.090;2024-01-15T07:42:31;1.60;99.90
4548;DHT22;2286;51.570;7.090;2024-01-15T07:44:58;1.60;99.90
4548;DHT22;2286;51.570;7.090;2024-01-15T07:47:25;1.60;99.90
4548;DHT22;2286;51.570;7.090;2024-01-15T07:49:53;1.60;99.90
4548;DHT22;2286;51.570;7.090;2024-01-15T07:52:22;1.60;99.90
4548;DHT22;2286;51.570;7.090;2024-01-15T07:54:49;1.60;99.90
4548;DHT22;2286;51.570;7.090;2024-01-15T07:57:16;1.60;1.00
4548;DHT22;2286;51.570;7.090;2024-01-15T07:59:43;1.60;1.00
4548;DHT22;2286;51.570;7.090;2024-01-15T08:02:10;1.60;1.00
4548;DHT22;2286;51.570;7.090;2024-01-15T08:04:37;1.60;1.00
4548;DHT22;2286;51.570;7.090;2024-01-15T08:07:04;1.60;1.00
4548;DHT22;2286;51.570;7.090;2024-01-15T08:09:34;1.50;1.00
4548;DHT22;2286;51.570;7.090;2024-01-15T08:12:01;1.40;25.70
4548;DHT22;2286;51.570;7.090;2024-01-15T08:14:28;1.40;99.90
4548;DHT22;2286;51.570;7.090;2024-01-15T08:16:55;1.30;99.90
4548;DHT22;2286;51.570;7.090;2024-01-15T08:19:22;1.20;1.00
4548;DHT22;2286;51.570;7.090;2024-01-15T08:21:49;1.10;1.00
4548;DHT22;2286;51.570;7.090;2024-01-15T08:24:16;1.10;99.90
4548;DHT22;2286;51.570;7.090;2024-01-15T08:26:45;1.00;99.90
4548;DHT22;2286;51.570;7.090;2024-01-15T08:29:12;1.00;1.00
4548;DHT22;2286;51.570;7.090;2024-01-15T08:31:39;1.00;99.90
4548;DHT22;2286;51.570;7.090;2024-01-15T08:34:06;1.00;99.90
4548;DHT22;2286;51.570;7.090;2024-01-15T08:36:33;1.00;1.00
4548;DHT22;2286;51.570;7.090;2024-01-15T08:39:01;1.00;1.00
4548;DHT22;2286;51.570;7.090;2024-01-15T08:41:31;1.00;99.90
4548;DHT22;2286;51.570;7.090;2024-01-15T08:43:59;1.10;99.90
4548;DHT22;2286;51.570;7.090;2024-01-15T08:46:26;1.10;1.00
4548;DHT22;2286;51.570;7.090;2024-01-15T08:48:53;1.00;1.00
4548;DHT22;2286;51.570;7.090;2024-01-15T08:51:20;1.00;1.00
4548;DHT22;2286;51.570;7.090;2024-01-15T08:53:47;1.00;1.00
4548;DHT22;2286;51.570;7.090;2024-01-15T08:56:14;1.00;1.00
4548;DHT22;2286;51.570;7.090;2024-01-15T08:58:41;1.00;1.00
4548;DHT22;2286;51.570;7.090;2024-01-15T09:01:10;1.10;1.00
4548;DHT22;2286;51.570;7.090;2024-01-15T09:03:37;1.00;28.80
4548;DHT22;2286;51.570;7.090;2024-01-15T09:06:04;1.00;99.90
4548;DHT22;2286;51.570;7.090;2024-01-15T09:08:32;1.00;99.90
4548;DHT22;2286;51.570;7.090;2024-01-15T09:10:59;1.00;99.90
4548;DHT22;2286;51.570;7.090;2024-01-15T09:13:28;1.00;99.90
4548;DHT22;2286;51.570;7.090;2024-01-15T09:15:55;1.00;99.90
4548;DHT22;2286;51.570;7.090;2024-01-15T09:18:23;1.00;99.90
4548;DHT22;2286;51.570;7.090;2024-01-15T09:20:50;0.90;99.90
4548;DHT22;2286;51.570;7.090;2024-01-15T09:23:17;0.90;99.90
4548;DHT22;2286;51.570;7.090;2024-01-15T09:25:44;0.90;99.90
4548;DHT22;2286;51.570;7.090;2024-01-15T09:28:11;0.90;99.90
4548;DHT22;2286;51.570;7.090;2024-01-15T09:30:39;0.80;1.00
4548;DHT22;2286;51.570;7.090;2024-01-15T09:33:06;0.80;1.00
4548;DHT22;2286;51.570;7.090;2024-01-15T09:35:34;0.80;1.00
4548;DHT22;2286;51.570;7.090;2024-01-15T09:38:02;0.80;1.00
4548;DHT22;2286;51.570;7.090;2024-01-15T09:40:32;0.80;1.00
4548;DHT22;2286;51.570;7.090;2024-01-15T09:43:00;0.80;99.90
4548;DHT22;2286;51.570;7.090;2024-01-15T09:45:28;0.80;99.90
4548;DHT22;2286;51.570;7.090;2024-01-15T09:47:56;0.80;99.90
4548;DHT22;2286;51.570;7.090;2024-01-15T09:50:23;0.80;99.90
4548;DHT22;2286;51.570;7.090;2024-01-15T09:52:52;0.90;1.00
4548;DHT22;2286;51.570;7.090;2024-01-15T09:55:19;0.80;1.00
4548;DHT22;2286;51.570;7.090;2024-01-15T09:57:46;0.80;1.00
4548;DHT22;2286;51.570;7.090;2024-01-15T10:00:15;0.80;1.00
4548;DHT22;2286;51.570;7.090;2024-01-15T10:02:44;0.80;1.00
4548;DHT22;2286;51.570;7.090;2024-01-15T10:05:11;0.90;1.00
4548;DHT22;2286;51.570;7.090;2024-01-15T10:07:38;0.90;1.00
4548;DHT22;2286;51.570;7.090;2024-01-15T10:10:08;0.90;1.00
4548;DHT22;2286;51.570;7.090;2024-01-15T10:12:38;0.90;1.00
4548;DHT22;2286;51.570;7.090;2024-01-15T10:15:06;1.00;1.00
4548;DHT22;2286;51.570;7.090;2024-01-15T10:17:37;0.90;1.00
4548;DHT22;2286;51.570;7.090;2024-01-15T10:20:08;1.00;1.00
4548;DHT22;2286;51.570;7.090;2024-01-15T10:22:38;1.00;1.00
4548;DHT22;2286;51.570;7.090;2024-01-15T10:25:06;1.00;99.90
4548;DHT22;2286;51.570;7.090;2024-01-15T10:27:34;1.00;99.90
4548;DHT22;2286;51.570;7.090;2024-01-15T10:30:02;1.10;99.90
4548;DHT22;2286;51.570;7.090;2024-01-15T10:32:29;1.10;94.90
4548;DHT22;2286;51.570;7.090;2024-01-15T10:34:56;1.10;1.00
4548;DHT22;2286;51.570;7.090;2024-01-15T10:37:24;1.10;1.00
4548;DHT22;2286;51.570;7.090;2024-01-15T10:39:52;1.10;99.90
4548;DHT22;2286;51.570;7.090;2024-01-15T10:42:19;1.10;99.90
4548;DHT22;2286;51.570;7.090;2024-01-15T10:44:48;1.10;99.90
4548;DHT22;2286;51.570;7.090;2024-01-15T10:47:15;1.20;99.90
4548;DHT22;2286;51.570;7.090;2024-01-15T10:49:42;1.20;99.90
4548;DHT22;2286;51.570;7.090;2024-01-15T10:52:10;1.30;84.70
4548;DHT22;2286;51.570;7.090;2024-01-15T10:54:38;1.30;1.00
4548;DHT22;2286;51.570;7.090;2024-01-15T10:57:06;1.30;1.00
4548;DHT22;2286;51.570;7.090;2024-01-15T10:59:33;1.30;1.00
4548;DHT22;2286;51.570;7.090;2024-01-15T11:02:01;1.40;1.00
4548;DHT22;2286;51.570;7.090;2024-01-15T11:04:29;1.40;99.90
4548;DHT22;2286;51.570;7.090;2024-01-15T11:06:58;1.40;99.90
4548;DHT22;2286;51.570;7.090;2024-01-15T11:09:26;1.50;17.60
4548;DHT22;2286;51.570;7.090;2024-01-15T11:12:07;1.50;1.00
4548;DHT22;2286;51.570;7.090;2024-01-15T11:14:34;1.60;99.90
4548;DHT22;2286;51.570;7.090;2024-01-15T11:17:03;1.80;19.50
4548;DHT22;2286;51.570;7.090;2024-01-15T11:19:37;1.80;99.90
4548;DHT22;2286;51.570;7.090;2024-01-15T11:22:07;1.70;1.00
4548;DHT22;2286;51.570;7.090;2024-01-15T11:24:38;1.60;1.00
4548;DHT22;2286;51.570;7.090;2024-01-15T11:27:06;1.60;1.00
4548;DHT22;2286;51.570;7.090;2024-01-15T11:29:35;1.60;1.00
4548;DHT22;2286;51.570;7.090;2024-01-15T11:32:05;1.70;1.00
4548;DHT22;2286;51.570;7.090;2024-01-15T11:34:55;1.80;99.90
4548;DHT22;2286;51.570;7.090;2024-01-15T11:37:28;1.90;1.00
4548;DHT22;2286;51.570;7.090;2024-01-15T11:39:56;2.00;99.90
4548;DHT22;2286;51.570;7.090;2024-01-15T11:42:27;2.10;1.00
4548;DHT22;2286;51.570;7.090;2024-01-15T11:44:54;2.20;99.90
4548;DHT22;2286;51.570;7.090;2024-01-15T11:48:04;2.20;11.10
4548;DHT22;2286;51.570;7.090;2024-01-15T11:50:35;2.00;1.00
4548;DHT22;2286;51.570;7.090;2024-01-15T11:53:13;2.00;1.00
4548;DHT22;2286;51.570;7.090;2024-01-15T11:55:44;1.90;1.00
4548;DHT22;2286;51.570;7.090;2024-01-15T11:58:12;1.90;4.30
4548;DHT22;2286;51.570;7.090;2024-01-15T12:00:40;1.90;99.90
4548;DHT22;2286;51.570;7.090;2024-01-15T12:03:10;1.90;99.90
4548;DHT22;2286;51.570;7.090;2024-01-15T12:05:38;1.90;99.90
4548;DHT22;2286;51.570;7.090;2024-01-15T12:08:05;1.80;99.90
4548;DHT22;2286;51.570;7.090;2024-01-15T12:10:36;1.80;99.90
4548;DHT22;2286;51.570;7.090;2024-01-15T12:13:05;1.90;99.90
4548;DHT22;2286;51.570;7.090;2024-01-15T12:15:33;1.90;99.90
4548;DHT22;2286;51.570;7.090;2024-01-15T12:18:01;2.10;1.00
4548;DHT22;2286;51.570;7.090;2024-01-15T12:20:31;2.20;76.50
4548;DHT22;2286;51.570;7.090;2024-01-15T12:23:00;2.30;1.00
4548;DHT22;2286;51.570;7.090;2024-01-15T12:25:29;2.30;1.00
4548;DHT22;2286;51.570;7.090;2024-01-15T12:27:57;2.30;99.90
4548;DHT22;2286;51.570;7.090;2024-01-15T12:30:26;2.30;99.90
4548;DHT22;2286;51.570;7.090;2024-01-15T12:32:53;2.10;99.90
4548;DHT22;2286;51.570;7.090;2024-01-15T12:35:20;2.00;99.90
4548;DHT22;2286;51.570;7.090;2024-01-15T12:37:48;1.90;99.90
4548;DHT22;2286;51.570;7.090;2024-01-15T12:40:20;1.80;99.90
4548;DHT22;2286;51.570;7.090;2024-01-15T12:42:47;1.90;99.90
4548;DHT22;2286;51.570;7.090;2024-01-15T12:45:14;1.90;99.90
4548;DHT22;2286;51.570;7.090;2024-01-15T12:47:42;2.10;99.90
4548;DHT22;2286;51.570;7.090;2024-01-15T12:50:09;2.10;99.90
4548;DHT22;2286;51.570;7.090;2024-01-15T12:52:36;2.20;99.90
4548;DHT22;2286;51.570;7.090;2024-01-15T12:55:06;2.70;1.00
4548;DHT22;2286;51.570;7.090;2024-01-15T12:57:35;2.80;99.90
4548;DHT22;2286;51.570;7.090;2024-01-15T13:00:02;2.90;99.90
4548;DHT22;2286;51.570;7.090;2024-01-15T13:02:32;3.00;99.90
4548;DHT22;2286;51.570;7.090;2024-01-15T13:04:59;2.70;99.90
4548;DHT22;2286;51.570;7.090;2024-01-15T13:07:27;2.60;1.00
4548;DHT22;2286;51.570;7.090;2024-01-15T13:09:54;2.70;99.90
4548;DHT22;2286;51.570;7.090;2024-01-15T13:12:22;2.80;1.00
4548;DHT22;2286;51.570;7.090;2024-01-15T13:14:49;3.00;99.90
4548;DHT22;2286;51.570;7.090;2024-01-15T13:17:16;3.00;99.90
4548;DHT22;2286;51.570;7.090;2024-01-15T13:19:43;2.90;99.90
4548;DHT22;2286;51.570;7.090;2024-01-15T13:22:10;2.80;99.90
4548;DHT22;2286;51.570;7.090;2024-01-15T13:24:39;2.60;99.90
4548;DHT22;2286;51.570;7.090;2024-01-15T13:27:06;2.70;99.90
4548;DHT22;2286;51.570;7.090;2024-01-15T13:29:35;2.60;1.00
4548;DHT22;2286;51.570;7.090;2024-01-15T13:32:02;2.60;1.00
4548;DHT22;2286;51.570;7.090;2024-01-15T13:34:30;2.50;99.90
4548;DHT22;2286;51.570;7.090;2024-01-15T13:36:57;2.60;1.00
4548;DHT22;2286;51.570;7.090;2024-01-15T13:39:24;2.50;99.90
4548;DHT22;2286;51.570;7.090;2024-01-15T13:41:51;2.40;99.90
4548;DHT22;2286;51.570;7.090;2024-01-15T13:44:19;2.40;1.00
4548;DHT22;2286;51.570;7.090;2024-01-15T13:46:47;2.50;99.90
4548;DHT22;2286;51.570;7.090;2024-01-15T13:49:14;2.60;99.90
4548;DHT22;2286;51.570;7.090;2024-01-15T13:51:41;2.80;99.90
4548;DHT22;2286;51.570;7.090;2024-01-15T13:54:08;2.90;99.90
4548;DHT22;2286;51.570;7.090;2024-01-15T13:56:35;2.70;4.20
4548;DHT22;2286;51.570;7.090;2024-01-15T13:59:02;2.60;99.90
4548;DHT22;2286;51.570;7.090;2024-01-15T14:01:31;2.30;99.90
4548;DHT22;2286;51.570;7.090;2024-01-15T14:04:00;2.00;1.00
4548;DHT22;2286;51.570;7.090;2024-01-15T14:06:27;1.80;99.90
4548;DHT22;2286;51.570;7.090;2024-01-15T14:08:54;1.80;1.00
4548;DHT22;2286;51.570;7.090;2024-01-15T14:11:21;1.80;1.00
4548;DHT22;2286;51.570;7.090;2024-01-15T14:13:48;1.80;99.90
4548;DHT22;2286;51.570;7.090;2024-01-15T14:16:15;1.80;99.90
4548;DHT22;2286;51.570;7.090;2024-01-15T14:18:42;1.90;99.90
4548;DHT22;2286;51.570;7.090;2024-01-15T14:21:11;1.90;99.90
4548;DHT22;2286;51.570;7.090;2024-01-15T14:23:38;2.00;99.90
4548;DHT22;2286;51.570;7.090;2024-01-15T14:26:05;2.00;84.20
4548;DHT22;2286;51.570;7.090;2024-01-15T14:28:32;2.00;1.00
4548;DHT22;2286;51.570;7.090;2024-01-15T14:30:59;2.10;12.50
4548;DHT22;2286;51.570;7.090;2024-01-15T14:33:26;2.00;1.00
4548;DHT22;2286;51.570;7.090;2024-01-15T14:35:53;2.00;1.00
4548;DHT22;2286;51.570;7.090;2024-01-15T14:38:21;2.00;1.00
4548;DHT22;2286;51.570;7.090;2024-01-15T14:40:48;1.90;1.00
4548;DHT22;2286;51.570;7.090;2024-01-15T14:43:16;1.80;1.00
4548;DHT22;2286;51.570;7.090;2024-01-15T14:45:43;1.90;1.00
4548;DHT22;2286;51.570;7.090;2024-01-15T14:48:10;1.80;1.00
4548;DHT22;2286;51.570;7.090;2024-01-15T14:50:39;1.90;1.00
4548;DHT22;2286;51.570;7.090;2024-01-15T14:53:06;1.80;1.00
4548;DHT22;2286;51.570;7.090;2024-01-15T14:55:35;1.80;1.00
4548;DHT22;2286;51.570;7.090;2024-01-15T14:58:02;1.80;1.00
4548;DHT22;2286;51.570;7.090;2024-01-15T15:00:29;1.80;1.00
4548;DHT22;2286;51.570;7.090;2024-01-15T15:02:56;1.80;99.90
4548;DHT22;2286;51.570;7.090;2024-01-15T15:05:23;1.70;99.90
4548;DHT22;2286;51.570;7.090;2024-01-15T15:07:51;1.70;99.90
4548;DHT22;2286;51.570;7.090;2024-01-15T15:10:18;1.70;1.00
4548;DHT22;2286;51.570;7.090;2024-01-15T15:12:46;1.70;1.00
4548;DHT22;2286;51.570;7.090;2024-01-15T15:15:13;1.70;1.00
4548;DHT22;2286;51.570;7.090;2024-01-15T15:17:42;1.70;1.00
4548;DHT22;2286;51.570;7.090;2024-01-15T15:20:10;1.60;99.90
4548;DHT22;2286;51.570;7.090;2024-01-15T15:22:37;1.60;99.90
4548;DHT22;2286;51.570;7.090;2024-01-15T15:25:05;1.50;99.90
4548;DHT22;2286;51.570;7.090;2024-01-15T15:27:34;1.40;99.90
4548;DHT22;2286;51.570;7.090;2024-01-15T15:30:03;1.40;99.90
4548;DHT22;2286;51.570;7.090;2024-01-15T15:32:30;1.40;99.90
4548;DHT22;2286;51.570;7.090;2024-01-15T15:34:57;1.40;1.00
4548;DHT22;2286;51.570;7.090;2024-01-15T15:37:24;1.40;1.00
4548;DHT22;2286;51.570;7.090;2024-01-15T15:39:51;1.40;1.00
4548;DHT22;2286;51.570;7.090;2024-01-15T15:42:19;1.30;1.00
4548;DHT22;2286;51.570;7.090;2024-01-15T15:44:46;1.30;1.00
4548;DHT22;2286;51.570;7.090;2024-01-15T15:47:16;1.30;1.00
4548;DHT22;2286;51.570;7.090;2024-01-15T15:49:43;1.30;1.00
4548;DHT22;2286;51.570;7.090;2024-01-15T15:52:10;1.30;1.00
4548;DHT22;2286;51.570;7.090;2024-01-15T15:54:37;1.30;1.00
4548;DHT22;2286;51.570;7.090;2024-01-15T15:57:04;1.30;1.00
4548;DHT22;2286;51.570;7.090;2024-01-15T15:59:31;1.20;1.00
4548;DHT22;2286;51.570;7.090;2024-01-15T16:01:58;1.20;1.00
4548;DHT22;2286;51.570;7.090;2024-01-15T16:04:27;1.10;1.00
4548;DHT22;2286;51.570;7.090;2024-01-15T16:06:54;1.10;1.00
4548;DHT22;2286;51.570;7.090;2024-01-15T16:09:21;1.00;1.00
4548;DHT22;2286;51.570;7.090;2024-01-15T16:11:48;0.90;99.90
4548;DHT22;2286;51.570;7.090;2024-01-15T16:14:16;1.00;99.90
4548;DHT22;2286;51.570;7.090;2024-01-15T16:16:43;0.90;1.00
4548;DHT22;2286;51.570;7.090;2024-01-15T16:19:11;1.00;1.00
4548;DHT22;2286;51.570;7.090;2024-01-15T16:21:40;1.00;1.00
4548;DHT22;2286;51.570;7.090;2024-01-15T16:24:08;1.00;1.00
4548;DHT22;2286;51.570;7.090;2024-01-15T16:26:35;1.00;1.00